createdAt,value
2022-10-10T00:00:09.857Z,15.71
2022-10-10T00:05:08.320Z,15.56
2022-10-10T00:10:06.555Z,15.56
2022-10-10T00:15:05.446Z,15.88
2022-10-10T00:20:04.064Z,15.92
2022-10-10T00:25:06.495Z,15.78
2022-10-10T00:30:07.426Z,15.77
2022-10-10T00:35:06.509Z,15.57
2022-10-10T00:40:06.467Z,15.88
2022-10-10T00:45:24.751Z,15.89
2022-10-10T00:50:24.469Z,15.58
2022-10-10T00:55:23.444Z,15.66
2022-10-10T01:00:22.173Z,15.46
2022-10-10T01:05:21.070Z,15.64
2022-10-10T01:10:22.990Z,15.66
2022-10-10T01:15:35.498Z,15.61
2022-10-10T01:21:01.608Z,15.68
2022-10-10T01:26:14.734Z,15.45
2022-10-10T01:31:14.735Z,15.31
2022-10-10T01:36:18.643Z,15.41
2022-10-10T01:41:25.789Z,15.41
2022-10-10T01:46:28.197Z,15.16
2022-10-10T01:51:38.048Z,15.52
2022-10-10T01:56:49.899Z,15.34
2022-10-10T02:01:54.010Z,15.02
2022-10-10T02:06:56.015Z,15.20
2022-10-10T02:11:54.770Z,15.35
2022-10-10T02:16:54.951Z,14.99
2022-10-10T02:21:55.261Z,15.07
2022-10-10T02:27:09.662Z,15.05
2022-10-10T02:32:37.021Z,15.02
2022-10-10T02:37:39.214Z,14.60
2022-10-10T02:42:40.021Z,14.74
2022-10-10T02:47:41.320Z,14.97
2022-10-10T02:52:45.394Z,14.73
2022-10-10T02:57:45.029Z,14.59
2022-10-10T03:02:47.351Z,14.48
2022-10-10T03:07:45.727Z,14.41
2022-10-10T03:12:43.206Z,14.46
2022-10-10T03:17:43.142Z,14.53
2022-10-10T03:22:40.550Z,14.54
2022-10-10T03:27:38.559Z,14.89
2022-10-10T03:32:37.763Z,14.80
2022-10-10T03:37:36.333Z,15.15
2022-10-10T03:42:36.281Z,15.08
2022-10-10T03:47:44.362Z,14.93
2022-10-10T03:52:43.125Z,15.11
2022-10-10T03:57:42.151Z,15.04
2022-10-10T04:02:44.869Z,15.26
2022-10-10T04:07:48.147Z,15.42
2022-10-10T04:12:46.615Z,15.17
2022-10-10T04:17:48.248Z,15.29
2022-10-10T04:22:48.715Z,15.03
2022-10-10T04:27:50.657Z,15.43
2022-10-10T04:32:49.471Z,15.48
2022-10-10T04:37:53.572Z,15.40
2022-10-10T04:42:54.746Z,15.59
2022-10-10T04:47:54.098Z,15.36
2022-10-10T04:52:55.632Z,15.34
2022-10-10T04:57:54.546Z,15.26
2022-10-10T05:02:55.162Z,15.03
2022-10-10T05:08:01.886Z,15.17
2022-10-10T05:13:01.687Z,15.15
2022-10-10T05:18:02.598Z,15.49
2022-10-10T05:23:01.011Z,15.21
2022-10-10T05:28:05.399Z,15.04
2022-10-10T05:33:03.945Z,15.42
2022-10-10T05:38:06.039Z,15.39
2022-10-10T05:43:04.270Z,15.23
2022-10-10T05:48:04.402Z,15.33
2022-10-10T05:53:02.807Z,15.39
2022-10-10T05:58:06.880Z,15.57
2022-10-10T06:03:07.649Z,15.38
2022-10-10T06:08:12.062Z,15.38
2022-10-10T06:13:11.263Z,15.95
2022-10-10T06:18:13.111Z,15.96
2022-10-10T06:23:12.839Z,15.83
2022-10-10T06:28:12.329Z,15.86
2022-10-10T06:33:15.308Z,15.89
2022-10-10T06:38:17.159Z,15.82
2022-10-10T06:43:16.576Z,15.85
2022-10-10T06:48:16.247Z,15.98
2022-10-10T06:53:14.752Z,16.36
2022-10-10T06:58:16.699Z,15.99
2022-10-10T07:03:14.948Z,16.20
2022-10-10T07:08:13.549Z,16.45
2022-10-10T07:13:11.208Z,16.49
2022-10-10T07:18:10.366Z,16.41
2022-10-10T07:23:11.823Z,16.51
2022-10-10T07:28:13.903Z,16.45
2022-10-10T07:33:16.417Z,16.72
2022-10-10T07:38:17.446Z,16.74
2022-10-10T07:43:16.368Z,16.70
2022-10-10T07:48:17.830Z,16.95
2022-10-10T07:53:18.111Z,16.80
2022-10-10T07:58:19.380Z,16.68
2022-10-10T08:03:20.730Z,16.82
2022-10-10T08:08:23.188Z,16.93
2022-10-10T08:13:23.550Z,17.26
2022-10-10T08:18:21.884Z,17.29
2022-10-10T08:23:23.850Z,17.31
2022-10-10T08:28:24.926Z,17.50
2022-10-10T08:33:25.929Z,17.50
2022-10-10T08:38:24.564Z,17.21
2022-10-10T08:43:29.591Z,17.90
2022-10-10T08:48:30.267Z,17.93
2022-10-10T08:53:35.714Z,17.97
2022-10-10T08:58:55.619Z,18.32
2022-10-10T09:03:56.254Z,18.23
2022-10-10T09:09:13.488Z,18.38
2022-10-10T09:14:26.438Z,18.46
2022-10-10T09:19:35.011Z,18.67
2022-10-10T09:24:57.333Z,18.33
2022-10-10T09:30:09.467Z,18.60
2022-10-10T09:35:15.254Z,18.84
2022-10-10T09:40:19.109Z,18.95
2022-10-10T09:45:21.860Z,19.29
2022-10-10T09:50:21.266Z,19.17
2022-10-10T09:55:24.739Z,19.21
2022-10-10T10:00:30.042Z,19.58
2022-10-10T10:05:28.629Z,19.31
2022-10-10T10:10:27.886Z,19.51
2022-10-10T10:15:29.934Z,19.86
2022-10-10T10:20:31.750Z,19.94
2022-10-10T10:25:39.564Z,19.67
2022-10-10T10:30:39.805Z,20.09
2022-10-10T10:35:51.808Z,19.58
2022-10-10T10:41:11.519Z,19.76
2022-10-10T10:46:12.186Z,19.68
2022-10-10T10:51:32.467Z,19.95
2022-10-10T10:56:36.333Z,20.11
2022-10-10T11:02:11.119Z,20.22
2022-10-10T11:07:20.710Z,20.49
2022-10-10T11:12:54.598Z,20.69
2022-10-10T11:17:56.287Z,19.96
2022-10-10T11:23:09.964Z,20.20
2022-10-10T11:28:49.573Z,20.72
2022-10-10T11:34:01.564Z,20.86
2022-10-10T11:39:16.060Z,20.56
2022-10-10T11:44:22.979Z,20.42
2022-10-10T11:49:32.395Z,20.88
2022-10-10T11:54:44.941Z,20.92
2022-10-10T11:59:47.827Z,20.19
2022-10-10T12:04:45.419Z,20.10
2022-10-10T12:09:46.902Z,20.13
2022-10-10T12:14:56.766Z,20.22
2022-10-10T12:20:10.409Z,20.23
2022-10-10T12:25:23.547Z,20.61
2022-10-10T12:30:25.252Z,20.54
2022-10-10T12:35:44.581Z,20.37
2022-10-10T12:41:03.324Z,21.06
2022-10-10T12:46:45.634Z,20.43
2022-10-10T12:52:02.558Z,20.56
2022-10-10T12:57:34.615Z,20.84
2022-10-10T13:02:36.346Z,21.04
2022-10-10T13:07:37.216Z,20.68
2022-10-10T13:12:35.946Z,21.19
2022-10-10T13:17:40.938Z,20.93
2022-10-10T13:22:45.218Z,21.16
2022-10-10T13:27:46.196Z,20.91
2022-10-10T13:32:47.535Z,20.83
2022-10-10T13:37:47.960Z,20.46
2022-10-10T13:42:49.814Z,20.65
2022-10-10T13:47:54.763Z,20.13
2022-10-10T13:53:30.685Z,20.19
2022-10-10T13:58:39.710Z,19.63
2022-10-10T14:03:39.376Z,19.64
2022-10-10T14:08:40.380Z,19.16
2022-10-10T14:13:48.052Z,19.43
2022-10-10T14:18:56.246Z,19.17
2022-10-10T14:23:55.103Z,19.14
2022-10-10T14:28:56.800Z,19.12
2022-10-10T14:33:56.118Z,18.97
2022-10-10T14:38:55.729Z,19.01
2022-10-10T14:43:54.217Z,18.91
2022-10-10T14:48:52.875Z,18.69
2022-10-10T14:54:13.517Z,18.63
2022-10-10T14:59:45.729Z,18.46
2022-10-10T15:04:40.027Z,18.43
2022-10-10T15:09:42.864Z,18.21
2022-10-10T15:14:48.441Z,18.27
2022-10-10T15:19:58.456Z,18.30
2022-10-10T15:25:04.625Z,18.35
2022-10-10T15:30:04.954Z,18.10
2022-10-10T15:35:07.300Z,17.95
2022-10-10T15:40:06.386Z,17.99
2022-10-10T15:45:08.203Z,17.72
2022-10-10T15:50:07.106Z,17.88
2022-10-10T15:55:11.461Z,17.85
2022-10-10T16:00:11.099Z,18.06
2022-10-10T16:05:15.781Z,17.73
2022-10-10T16:10:19.987Z,17.84
2022-10-10T16:15:18.113Z,17.82
2022-10-10T16:20:17.145Z,17.93
2022-10-10T16:25:23.502Z,17.91
2022-10-10T16:30:21.645Z,17.94
2022-10-10T16:35:20.226Z,17.62
2022-10-10T16:40:18.368Z,17.53
2022-10-10T16:45:16.957Z,17.38
2022-10-10T16:50:19.016Z,17.32
2022-10-10T16:55:17.387Z,17.05
2022-10-10T17:00:15.730Z,17.15
2022-10-10T17:05:13.890Z,17.15
2022-10-10T17:10:14.039Z,17.03
2022-10-10T17:15:14.311Z,17.05
2022-10-10T17:20:28.205Z,17.11
2022-10-10T17:25:35.270Z,16.94
2022-10-10T17:30:42.488Z,16.58
2022-10-10T17:35:44.962Z,16.79
2022-10-10T17:40:59.184Z,16.45
2022-10-10T17:46:33.039Z,16.45
2022-10-10T17:51:35.904Z,16.31
2022-10-10T17:56:37.759Z,16.06
2022-10-10T18:01:37.330Z,16.03
2022-10-10T18:06:37.620Z,16.07
2022-10-10T18:11:36.610Z,16.27
2022-10-10T18:16:36.132Z,16.36
2022-10-10T18:21:35.329Z,16.55
2022-10-10T18:26:37.186Z,16.39
2022-10-10T18:31:36.876Z,16.19
2022-10-10T18:36:36.436Z,15.89
2022-10-10T18:41:34.900Z,16.09
2022-10-10T18:46:34.849Z,16.17
2022-10-10T18:51:34.287Z,15.94
2022-10-10T18:56:33.115Z,16.13
2022-10-10T19:01:35.346Z,16.02
2022-10-10T19:06:36.183Z,16.29
2022-10-10T19:11:36.649Z,16.43
2022-10-10T19:16:35.891Z,16.32
2022-10-10T19:21:35.771Z,16.12
2022-10-10T19:26:34.940Z,16.33
2022-10-10T19:31:33.300Z,16.01
2022-10-10T19:36:34.362Z,16.22
2022-10-10T19:41:37.477Z,16.31
2022-10-10T19:46:37.945Z,16.17
2022-10-10T19:51:35.964Z,15.99
2022-10-10T19:56:35.173Z,16.04
2022-10-10T20:01:34.128Z,16.25
2022-10-10T20:06:37.668Z,16.07
2022-10-10T20:11:37.329Z,16.12
2022-10-10T20:16:35.486Z,15.93
2022-10-10T20:21:34.200Z,15.90
2022-10-10T20:26:33.286Z,15.92
2022-10-10T20:31:35.104Z,15.80
2022-10-10T20:36:33.721Z,15.61
2022-10-10T20:41:36.210Z,15.47
2022-10-10T20:46:39.256Z,16.06
2022-10-10T20:51:39.679Z,15.92
2022-10-10T20:56:38.660Z,15.65
2022-10-10T21:01:37.849Z,15.58
2022-10-10T21:06:38.211Z,15.95
2022-10-10T21:11:39.197Z,15.41
2022-10-10T21:16:39.154Z,15.37
2022-10-10T21:21:37.216Z,15.38
2022-10-10T21:26:35.929Z,15.70
2022-10-10T21:31:36.883Z,15.85
2022-10-10T21:36:36.084Z,15.40
2022-10-10T21:41:36.193Z,15.64
2022-10-10T21:46:36.960Z,14.81
2022-10-10T21:51:42.167Z,14.63
2022-10-10T21:56:40.985Z,14.48
2022-10-10T22:01:39.746Z,14.62
2022-10-10T22:06:38.953Z,14.60
2022-10-10T22:11:37.549Z,15.10
2022-10-10T22:16:36.277Z,14.92
2022-10-10T22:21:35.557Z,14.30
2022-10-10T22:26:35.302Z,14.12
2022-10-10T22:31:38.284Z,13.78
2022-10-10T22:36:40.084Z,13.95
2022-10-10T22:41:37.686Z,13.78
2022-10-10T22:46:36.873Z,13.80
2022-10-10T22:51:36.746Z,13.76
2022-10-10T22:56:35.660Z,13.95
2022-10-10T23:01:34.555Z,14.05
2022-10-10T23:06:33.677Z,14.30
2022-10-10T23:11:34.851Z,14.53
2022-10-10T23:16:35.709Z,14.48
2022-10-10T23:21:36.622Z,14.71
2022-10-10T23:26:38.701Z,14.23
2022-10-10T23:31:36.687Z,14.06
2022-10-10T23:36:38.498Z,14.04
2022-10-10T23:41:40.112Z,13.78
2022-10-10T23:46:41.703Z,13.60
2022-10-10T23:51:40.702Z,13.91
2022-10-10T23:56:42.169Z,13.82
